KHOP

Campbell AAF (Fort Campbell) Airport

Fort Campbell/Hopkinsville, Kentucky, USA
TAF KHOP 211600Z 2116/2222 10009KT 9999 FEW120 QNH3025INS BECMG 2208/2209 14009KT 9999 BKN100 QNH3009INS BECMG 2219/2220 16012KT 9999 BKN040 QNH3006INS TX00/2214Z TNM06/2116Z
Issued Valid From Valid To
Jan-21 @ 16:00 UTC
(8 hours ago)
Jan-21 @ 16:00 UTC
(8 hours ago)
Jan-22 @ 22:00 UTC
(in 22 hours)
Jan-21 @ 16:00 to Jan-22 @ 08:00
TAF KHOP 211600Z 2116/2222 10009KT 9999 FEW120 QNH3025INS
Wind Visibility Clouds Readings
100° at 9 knots Greater than 6 miles
  • Few at 12,000' AGL
Altimeter 30.24" Hg
Pressure 1023.92 hPa
Becoming Jan-22 @ 08:00 to Jan-22 @ 19:00
BECMG 2208/2209 14009KT 9999 BKN100 QNH3009INS
Wind Visibility Clouds Readings
140° at 9 knots Greater than 6 miles
  • Broken at 10,000' AGL
Altimeter 30.09" Hg
Pressure 1018.92 hPa
Becoming Jan-22 @ 19:00 to Jan-22 @ 22:00
BECMG 2219/2220 16012KT 9999 BKN040 QNH3006INS TX00/2214Z TNM06/2116Z
Wind Visibility Clouds Readings
160° at 12 knots Greater than 6 miles
  • Broken at 4,000' AGL
Altimeter 30.06" Hg
Pressure 1017.92 hPa
TAF KHOP 211600Z 2116/2222 10009KT 9999 FEW120 QNH3025INS BECMG 2208/2209 14009KT 9999 BKN100 QNH3009INS BECMG 2219/2220 16012KT 9999 BKN040 QNH3006INS TX00/2214Z TNM06/2116Z
Issued Jan-21 @ 16:00 UTC
(8 hours ago)
Valid From Jan-21 @ 16:00 UTC
(8 hours ago)
Valid To Jan-22 @ 22:00 UTC
(in 22 hours)
Jan-21 @ 16:00 - Jan-22 @ 08:00
Wind Visibility
100° at 9 knots Greater than 6 miles
Clouds
  • Few at 12,000' AGL
Becoming Jan-22 @ 08:00 - Jan-22 @ 19:00
Wind Visibility
140° at 9 knots Greater than 6 miles
Clouds
  • Broken at 10,000' AGL
Becoming Jan-22 @ 19:00 - Jan-22 @ 22:00
Wind Visibility
160° at 12 knots Greater than 6 miles
Clouds
  • Broken at 4,000' AGL